White Point — IBAE — position and weather

sailwx.info

Track history (hours):
 
Tides and Currents Weather Stations Pressure Air Temp Water Temp Dewpoint Dewpoint Depression Visibility Wind Speed Wind Dir Waves Ship Positions

White Point

Last reported at 2017-Mar-24 17:22 UTC. Time now 2017-Mar-24 18:03 UTC.
Position N 45°27' E 012°16'.

Length 183 m; draft 1.1 m.

Type: Ship (hazmat cat D). MMSI: 247087400.

Date/timePositionNaut miles runAvg speedWind from/ knotsBaromVisibWave heightAir tempDewpointWater temp
2017-Mar-24 17:22N 45°27' E 012°16'0 0.0
2017-Mar-24 16:31N 45°27' E 012°16'0 0.0
2017-Mar-24 15:31N 45°27' E 012°16'0 0.0
2017-Mar-24 14:31N 45°27' E 012°16'0 0.0
2017-Mar-24 13:31N 45°27' E 012°16'0 0.0
2017-Mar-24 12:31N 45°27' E 012°16'0 0.0
2017-Mar-24 11:31N 45°27' E 012°16'0 0.0
2017-Mar-24 10:28N 45°27' E 012°16'0 0.0
2017-Mar-24 09:31N 45°27' E 012°16'0 0.0
2017-Mar-24 08:31N 45°27' E 012°16'0 0.0
2017-Mar-24 07:31N 45°27' E 012°16'0 0.0
2017-Mar-24 06:31N 45°27' E 012°16'0 0.0
2017-Mar-24 05:31N 45°27' E 012°16'0 0.0
2017-Mar-24 04:31N 45°27' E 012°16'0 0.0
2017-Mar-24 03:31N 45°27' E 012°16'0 0.0
2017-Mar-24 02:31N 45°27' E 012°16'0 0.0
2017-Mar-24 01:31N 45°27' E 012°16'0 0.0
2017-Mar-24 00:31N 45°27' E 012°16'0 0.0
2017-Mar-23 23:31N 45°27' E 012°16'0 0.0
2017-Mar-23 22:28N 45°27' E 012°16'0 0.0
2017-Mar-23 21:31N 45°27' E 012°16'0 0.0
2017-Mar-23 20:31N 45°27' E 012°16'0 0.0
2017-Mar-23 19:31N 45°27' E 012°16'0 0.0
2017-Mar-23 18:31N 45°27' E 012°16'0 0.0
2017-Mar-23 17:31N 45°27' E 012°16'0 0.0
2017-Mar-23 16:31N 45°27' E 012°16'0 0.0
2017-Mar-23 15:22N 45°27' E 012°16'0 0.0
2017-Mar-23 14:31N 45°27' E 012°16'0 0.0
2017-Mar-23 13:31N 45°27' E 012°16'0 0.1
2017-Mar-23 12:33N 45°27' E 012°16'6 6.4
2017-Mar-23 11:33N 45°21' E 012°16'7 6.7
2017-Mar-23 10:33N 45°20' E 012°25'0 0.3
2017-Mar-23 09:31N 45°20' E 012°26'0 0.0
2017-Mar-23 08:31N 45°20' E 012°26'0 0.0
2017-Mar-23 07:31N 45°20' E 012°26'0 0.0
2017-Mar-23 06:31N 45°20' E 012°26'0 0.0
2017-Mar-23 05:31N 45°20' E 012°26'0 0.0
2017-Mar-23 04:31N 45°20' E 012°26'0 0.1
2017-Mar-23 03:31N 45°20' E 012°26'0 0.0
2017-Mar-23 02:33N 45°20' E 012°26'0 0.0
2017-Mar-23 01:33N 45°20' E 012°25'0 0.0
2017-Mar-23 00:33N 45°20' E 012°25'0 0.0
2017-Mar-22 23:33N 45°20' E 012°25'2 2.1
2017-Mar-22 22:33N 45°18' E 012°28'1312.9
2017-Mar-22 21:33N 45°11' E 012°43'1312.8
2017-Mar-22 20:33N 44°60' E 012°52'1211.6
2017-Mar-22 19:33N 44°48' E 012°50'1312.8
2017-Mar-22 18:33N 44°38' E 012°40'1312.5
2017-Mar-22 17:33N 44°30' E 012°26'8 7.8
2017-Mar-22 16:29N 44°28' E 012°15'9 0.8
2017-Mar-22 04:33N 44°29' E 012°28'2412.1
2017-Mar-22 02:33N 44°22' E 012°60'3712.0
2017-Mar-21 23:27N 44°02' E 013°44'3411.6
2017-Mar-21 20:33N 43°37' E 014°15'23412.7
2017-Mar-21 02:08N 40°51' E 017°58'812.4
2017-Mar-21 01:31N 40°45' E 018°05'1312.1
2017-Mar-21 00:27N 40°36' E 018°17'1312.1
2017-Mar-20 23:22N 40°25' E 018°27'4110.5
2017-Mar-20 19:29N 39°44' E 018°22'1112.1
2017-Mar-20 18:32N 39°45' E 018°07'1212.5
2017-Mar-20 17:33N 39°52' E 017°55'1312.5
2017-Mar-20 16:29N 40°01' E 017°41'3411.6
2017-Mar-20 13:32N 40°26' E 017°10'3 0.9
2017-Mar-20 10:25N 40°28' E 017°12'0 0.0
2017-Mar-20 09:31N 40°28' E 017°12'0 0.0
2017-Mar-19 13:28N 40°28' E 017°12'0 0.0
2017-Mar-19 12:28N 40°28' E 017°12'0 0.0
2017-Mar-19 11:28N 40°28' E 017°12'0 0.0
2017-Mar-19 10:28N 40°28' E 017°12'0 0.0
2017-Mar-19 09:28N 40°28' E 017°12'0 0.0
2017-Mar-19 08:28N 40°28' E 017°12'0 0.0
2017-Mar-19 07:28N 40°28' E 017°12'0 0.0
2017-Mar-19 06:28N 40°28' E 017°12'0 0.0
2017-Mar-19 05:28N 40°28' E 017°12'0 0.0
2017-Mar-19 04:28N 40°28' E 017°12'0 0.0
2017-Mar-19 03:28N 40°28' E 017°12'0 0.0
2017-Mar-19 02:28N 40°28' E 017°12'0 0.0
2017-Mar-19 01:28N 40°28' E 017°12'0 0.0
2017-Mar-19 00:28N 40°28' E 017°12'0 0.0
2017-Mar-18 23:28N 40°28' E 017°12'0 0.0
2017-Mar-18 22:28N 40°28' E 017°12'0 0.0
2017-Mar-18 21:28N 40°28' E 017°12'0 0.0
2017-Mar-18 20:28N 40°28' E 017°12'0 0.0
2017-Mar-18 19:28N 40°28' E 017°12'0 0.0
2017-Mar-18 18:28N 40°28' E 017°12'0 0.0
2017-Mar-18 17:28N 40°28' E 017°12'0 0.0
2017-Mar-18 16:28N 40°28' E 017°12'0 0.0
2017-Mar-18 15:28N 40°28' E 017°12'0 0.0
2017-Mar-18 14:28N 40°28' E 017°12'0 0.0
2017-Mar-18 13:28N 40°28' E 017°12'0 0.0
2017-Mar-18 12:28N 40°28' E 017°12'0 0.0
2017-Mar-18 11:31N 40°28' E 017°12'0 0.0
2017-Mar-18 10:31N 40°28' E 017°12'0 0.2
2017-Mar-18 09:32N 40°28' E 017°12'  
2017-Mar-15 00:16N 40°04' E 017°31'912.9
2017-Mar-14 23:33N 40°11' E 017°22'1312.8
2017-Mar-14 22:32N 40°19' E 017°10'9 8.9
2017-Mar-14 21:31N 40°28' E 017°12'0 0.2
2017-Mar-14 20:32N 40°28' E 017°12'0 0.0
2017-Mar-14 19:32N 40°28' E 017°12'0 0.0
2017-Mar-14 18:31N 40°28' E 017°12'0 0.0
2017-Mar-14 17:31N 40°28' E 017°12'  
Track history (hours):
 
Tides and Currents Weather Stations Pressure Air Temp Water Temp Dewpoint Dewpoint Depression Visibility Wind Speed Wind Dir Waves Ship Positions

White Point

Last reported at 2017-Mar-24 17:22 UTC. Time now 2017-Mar-24 18:03 UTC.
Position N 45°27' E 012°16'.

Length 183 m; draft 1.1 m.

Type: Ship (hazmat cat D). MMSI: 247087400.

Date/timePositionNaut miles runAvg speedWind from/ knotsBaromVisibWave heightAir tempDewpointWater temp
2017-Mar-24 17:22N 45°27' E 012°16'0 0.0
2017-Mar-24 16:31N 45°27' E 012°16'0 0.0
2017-Mar-24 15:31N 45°27' E 012°16'0 0.0
2017-Mar-24 14:31N 45°27' E 012°16'0 0.0
2017-Mar-24 13:31N 45°27' E 012°16'0 0.0
2017-Mar-24 12:31N 45°27' E 012°16'0 0.0
2017-Mar-24 11:31N 45°27' E 012°16'0 0.0
2017-Mar-24 10:28N 45°27' E 012°16'0 0.0
2017-Mar-24 09:31N 45°27' E 012°16'0 0.0
2017-Mar-24 08:31N 45°27' E 012°16'0 0.0
2017-Mar-24 07:31N 45°27' E 012°16'0 0.0
2017-Mar-24 06:31N 45°27' E 012°16'0 0.0
2017-Mar-24 05:31N 45°27' E 012°16'0 0.0
2017-Mar-24 04:31N 45°27' E 012°16'0 0.0
2017-Mar-24 03:31N 45°27' E 012°16'0 0.0
2017-Mar-24 02:31N 45°27' E 012°16'0 0.0
2017-Mar-24 01:31N 45°27' E 012°16'0 0.0
2017-Mar-24 00:31N 45°27' E 012°16'0 0.0
2017-Mar-23 23:31N 45°27' E 012°16'0 0.0
2017-Mar-23 22:28N 45°27' E 012°16'0 0.0
2017-Mar-23 21:31N 45°27' E 012°16'0 0.0
2017-Mar-23 20:31N 45°27' E 012°16'0 0.0
2017-Mar-23 19:31N 45°27' E 012°16'0 0.0
2017-Mar-23 18:31N 45°27' E 012°16'0 0.0
2017-Mar-23 17:31N 45°27' E 012°16'0 0.0
2017-Mar-23 16:31N 45°27' E 012°16'0 0.0
2017-Mar-23 15:22N 45°27' E 012°16'0 0.0
2017-Mar-23 14:31N 45°27' E 012°16'0 0.0
2017-Mar-23 13:31N 45°27' E 012°16'0 0.1
2017-Mar-23 12:33N 45°27' E 012°16'6 6.4
2017-Mar-23 11:33N 45°21' E 012°16'7 6.7
2017-Mar-23 10:33N 45°20' E 012°25'0 0.3
2017-Mar-23 09:31N 45°20' E 012°26'0 0.0
2017-Mar-23 08:31N 45°20' E 012°26'0 0.0
2017-Mar-23 07:31N 45°20' E 012°26'0 0.0
2017-Mar-23 06:31N 45°20' E 012°26'0 0.0
2017-Mar-23 05:31N 45°20' E 012°26'0 0.0
2017-Mar-23 04:31N 45°20' E 012°26'0 0.1
2017-Mar-23 03:31N 45°20' E 012°26'0 0.0
2017-Mar-23 02:33N 45°20' E 012°26'0 0.0
2017-Mar-23 01:33N 45°20' E 012°25'0 0.0
2017-Mar-23 00:33N 45°20' E 012°25'0 0.0
2017-Mar-22 23:33N 45°20' E 012°25'2 2.1
2017-Mar-22 22:33N 45°18' E 012°28'1312.9
2017-Mar-22 21:33N 45°11' E 012°43'1312.8
2017-Mar-22 20:33N 44°60' E 012°52'1211.6
2017-Mar-22 19:33N 44°48' E 012°50'1312.8
2017-Mar-22 18:33N 44°38' E 012°40'1312.5
2017-Mar-22 17:33N 44°30' E 012°26'8 7.8
2017-Mar-22 16:29N 44°28' E 012°15'9 0.8
2017-Mar-22 04:33N 44°29' E 012°28'2412.1
2017-Mar-22 02:33N 44°22' E 012°60'3712.0
2017-Mar-21 23:27N 44°02' E 013°44'3411.6
2017-Mar-21 20:33N 43°37' E 014°15'23412.7
2017-Mar-21 02:08N 40°51' E 017°58'812.4
2017-Mar-21 01:31N 40°45' E 018°05'1312.1
2017-Mar-21 00:27N 40°36' E 018°17'1312.1
2017-Mar-20 23:22N 40°25' E 018°27'4110.5
2017-Mar-20 19:29N 39°44' E 018°22'1112.1
2017-Mar-20 18:32N 39°45' E 018°07'1212.5
2017-Mar-20 17:33N 39°52' E 017°55'1312.5
2017-Mar-20 16:29N 40°01' E 017°41'3411.6
2017-Mar-20 13:32N 40°26' E 017°10'3 0.9
2017-Mar-20 10:25N 40°28' E 017°12'0 0.0
2017-Mar-20 09:31N 40°28' E 017°12'0 0.0
2017-Mar-19 13:28N 40°28' E 017°12'0 0.0
2017-Mar-19 12:28N 40°28' E 017°12'0 0.0
2017-Mar-19 11:28N 40°28' E 017°12'0 0.0
2017-Mar-19 10:28N 40°28' E 017°12'0 0.0
2017-Mar-19 09:28N 40°28' E 017°12'0 0.0
2017-Mar-19 08:28N 40°28' E 017°12'0 0.0
2017-Mar-19 07:28N 40°28' E 017°12'0 0.0
2017-Mar-19 06:28N 40°28' E 017°12'0 0.0
2017-Mar-19 05:28N 40°28' E 017°12'0 0.0
2017-Mar-19 04:28N 40°28' E 017°12'0 0.0
2017-Mar-19 03:28N 40°28' E 017°12'0 0.0
2017-Mar-19 02:28N 40°28' E 017°12'0 0.0
2017-Mar-19 01:28N 40°28' E 017°12'0 0.0
2017-Mar-19 00:28N 40°28' E 017°12'0 0.0
2017-Mar-18 23:28N 40°28' E 017°12'0 0.0
2017-Mar-18 22:28N 40°28' E 017°12'0 0.0
2017-Mar-18 21:28N 40°28' E 017°12'0 0.0
2017-Mar-18 20:28N 40°28' E 017°12'0 0.0
2017-Mar-18 19:28N 40°28' E 017°12'0 0.0
2017-Mar-18 18:28N 40°28' E 017°12'0 0.0
2017-Mar-18 17:28N 40°28' E 017°12'0 0.0
2017-Mar-18 16:28N 40°28' E 017°12'0 0.0
2017-Mar-18 15:28N 40°28' E 017°12'0 0.0
2017-Mar-18 14:28N 40°28' E 017°12'0 0.0
2017-Mar-18 13:28N 40°28' E 017°12'0 0.0
2017-Mar-18 12:28N 40°28' E 017°12'0 0.0
2017-Mar-18 11:31N 40°28' E 017°12'0 0.0
2017-Mar-18 10:31N 40°28' E 017°12'0 0.2
2017-Mar-18 09:32N 40°28' E 017°12'  
2017-Mar-15 00:16N 40°04' E 017°31'912.9
2017-Mar-14 23:33N 40°11' E 017°22'1312.8
2017-Mar-14 22:32N 40°19' E 017°10'9 8.9
2017-Mar-14 21:31N 40°28' E 017°12'0 0.2
2017-Mar-14 20:32N 40°28' E 017°12'0 0.0
2017-Mar-14 19:32N 40°28' E 017°12'0 0.0
2017-Mar-14 18:31N 40°28' E 017°12'0 0.0
2017-Mar-14 17:31N 40°28' E 017°12'  

Dump ship's entire track history